sensor_id;sensor_type;location;lat;lon;timestamp;pressure;altitude;pressure_sealevel;temperature;humidity
3434;BME280;1730;41.932;25.548;2024-03-08T00:01:08;101544.97;;;7.89;100.00
3434;BME280;1730;41.932;25.548;2024-03-08T00:03:33;101507.03;;;7.62;100.00
3434;BME280;1730;41.932;25.548;2024-03-08T00:05:59;101544.94;;;8.06;100.00
3434;BME280;1730;41.932;25.548;2024-03-08T00:08:24;101518.81;;;7.92;100.00
3434;BME280;1730;41.932;25.548;2024-03-08T00:10:50;101503.94;;;8.02;100.00
3434;BME280;1730;41.932;25.548;2024-03-08T00:13:15;101433.53;;;7.80;100.00
3434;BME280;1730;41.932;25.548;2024-03-08T00:15:41;101415.06;;;7.74;100.00
3434;BME280;1730;41.932;25.548;2024-03-08T00:18:06;101448.78;;;7.95;100.00
3434;BME280;1730;41.932;25.548;2024-03-08T00:20:32;101377.31;;;7.61;100.00
3434;BME280;1730;41.932;25.548;2024-03-08T00:22:58;101298.75;;;7.27;100.00
3434;BME280;1730;41.932;25.548;2024-03-08T00:25:24;101400.69;;;7.91;100.00
3434;BME280;1730;41.932;25.548;2024-03-08T00:27:49;101397.88;;;7.94;100.00
3434;BME280;1730;41.932;25.548;2024-03-08T00:30:15;101388.91;;;7.78;100.00
3434;BME280;1730;41.932;25.548;2024-03-08T00:32:40;101395.59;;;7.86;100.00
3434;BME280;1730;41.932;25.548;2024-03-08T00:35:06;101406.94;;;7.91;100.00
3434;BME280;1730;41.932;25.548;2024-03-08T00:37:32;101365.19;;;7.54;100.00
3434;BME280;1730;41.932;25.548;2024-03-08T00:40:00;101397.22;;;7.73;100.00
3434;BME280;1730;41.932;25.548;2024-03-08T00:42:25;101422.38;;;7.88;100.00
3434;BME280;1730;41.932;25.548;2024-03-08T00:44:51;101427.91;;;7.85;100.00
3434;BME280;1730;41.932;25.548;2024-03-08T00:47:17;101398.59;;;7.64;100.00
3434;BME280;1730;41.932;25.548;2024-03-08T00:49:42;101428.94;;;7.82;100.00
3434;BME280;1730;41.932;25.548;2024-03-08T00:52:08;101416.75;;;7.77;100.00
3434;BME280;1730;41.932;25.548;2024-03-08T00:54:34;101437.19;;;7.95;100.00
3434;BME280;1730;41.932;25.548;2024-03-08T00:57:01;101442.31;;;8.15;100.00
3434;BME280;1730;41.932;25.548;2024-03-08T00:59:30;101431.13;;;8.23;100.00
3434;BME280;1730;41.932;25.548;2024-03-08T01:02:00;101260.50;;;7.23;100.00
3434;BME280;1730;41.932;25.548;2024-03-08T01:04:26;101381.81;;;8.08;100.00
3434;BME280;1730;41.932;25.548;2024-03-08T01:06:58;101368.56;;;8.05;100.00
3434;BME280;1730;41.932;25.548;2024-03-08T01:09:24;101341.00;;;7.86;100.00
3434;BME280;1730;41.932;25.548;2024-03-08T01:11:50;101333.06;;;7.84;100.00
3434;BME280;1730;41.932;25.548;2024-03-08T01:14:16;101330.25;;;7.86;100.00
3434;BME280;1730;41.932;25.548;2024-03-08T01:16:42;101334.16;;;7.96;100.00
3434;BME280;1730;41.932;25.548;2024-03-08T01:19:07;101300.31;;;7.62;100.00
3434;BME280;1730;41.932;25.548;2024-03-08T01:21:33;101329.31;;;7.87;100.00
3434;BME280;1730;41.932;25.548;2024-03-08T01:23:58;101339.47;;;7.97;100.00
3434;BME280;1730;41.932;25.548;2024-03-08T01:26:24;101138.28;;;6.70;100.00
3434;BME280;1730;41.932;25.548;2024-03-08T01:28:49;101126.22;;;6.46;100.00
3434;BME280;1730;41.932;25.548;2024-03-08T01:31:15;101329.84;;;7.62;100.00
3434;BME280;1730;41.932;25.548;2024-03-08T01:33:41;101368.84;;;7.85;100.00
3434;BME280;1730;41.932;25.548;2024-03-08T01:36:07;101236.63;;;6.86;100.00
3434;BME280;1730;41.932;25.548;2024-03-08T01:38:32;100989.06;;;5.25;100.00
3434;BME280;1730;41.932;25.548;2024-03-08T01:40:59;101429.00;;;7.65;100.00
3434;BME280;1730;41.932;25.548;2024-03-08T01:43:28;101448.59;;;7.67;100.00
3434;BME280;1730;41.932;25.548;2024-03-08T01:45:55;101467.63;;;7.62;100.00
3434;BME280;1730;41.932;25.548;2024-03-08T01:48:23;101484.13;;;7.55;100.00
3434;BME280;1730;41.932;25.548;2024-03-08T01:50:49;101507.91;;;7.62;100.00
3434;BME280;1730;41.932;25.548;2024-03-08T01:53:17;101511.59;;;7.60;100.00
3434;BME280;1730;41.932;25.548;2024-03-08T01:55:44;101500.34;;;7.53;100.00
3434;BME280;1730;41.932;25.548;2024-03-08T01:58:12;101541.28;;;7.74;100.00
3434;BME280;1730;41.932;25.548;2024-03-08T02:00:43;101516.84;;;7.46;100.00
3434;BME280;1730;41.932;25.548;2024-03-08T02:03:09;101374.00;;;6.56;100.00
3434;BME280;1730;41.932;25.548;2024-03-08T02:05:36;101527.19;;;7.53;100.00
3434;BME280;1730;41.932;25.548;2024-03-08T02:08:04;101536.22;;;7.68;100.00
3434;BME280;1730;41.932;25.548;2024-03-08T02:10:33;101366.03;;;6.55;100.00
3434;BME280;1730;41.932;25.548;2024-03-08T02:13:01;101425.41;;;6.99;100.00
3434;BME280;1730;41.932;25.548;2024-03-08T02:18:19;101554.03;;;7.86;100.00
3434;BME280;1730;41.932;25.548;2024-03-08T02:20:55;101515.34;;;7.57;100.00
3434;BME280;1730;41.932;25.548;2024-03-08T02:23:21;101455.13;;;7.29;100.00
3434;BME280;1730;41.932;25.548;2024-03-08T02:25:47;101513.28;;;7.62;100.00
3434;BME280;1730;41.932;25.548;2024-03-08T02:28:13;101480.34;;;7.42;100.00
3434;BME280;1730;41.932;25.548;2024-03-08T02:30:40;101503.53;;;7.60;100.00
3434;BME280;1730;41.932;25.548;2024-03-08T02:33:06;101474.69;;;7.48;100.00
3434;BME280;1730;41.932;25.548;2024-03-08T02:35:32;101505.59;;;7.72;100.00
3434;BME280;1730;41.932;25.548;2024-03-08T02:37:58;101513.03;;;7.67;100.00
3434;BME280;1730;41.932;25.548;2024-03-08T02:40:23;101488.75;;;7.68;100.00
3434;BME280;1730;41.932;25.548;2024-03-08T02:42:49;101326.94;;;6.68;100.00
3434;BME280;1730;41.932;25.548;2024-03-08T02:45:14;101495.00;;;7.69;100.00
3434;BME280;1730;41.932;25.548;2024-03-08T02:47:40;101503.69;;;7.74;100.00
3434;BME280;1730;41.932;25.548;2024-03-08T02:50:06;101514.41;;;7.74;100.00
3434;BME280;1730;41.932;25.548;2024-03-08T02:52:34;101526.72;;;7.78;100.00
3434;BME280;1730;41.932;25.548;2024-03-08T02:55:02;101514.97;;;7.81;100.00
3434;BME280;1730;41.932;25.548;2024-03-08T02:57:28;101522.25;;;7.94;100.00
3434;BME280;1730;41.932;25.548;2024-03-08T02:59:54;101512.03;;;7.85;100.00
3434;BME280;1730;41.932;25.548;2024-03-08T03:02:19;101508.75;;;7.80;100.00
3434;BME280;1730;41.932;25.548;2024-03-08T03:04:45;101482.94;;;7.60;100.00
3434;BME280;1730;41.932;25.548;2024-03-08T03:07:10;101494.63;;;7.59;100.00
3434;BME280;1730;41.932;25.548;2024-03-08T03:09:36;101383.09;;;6.88;100.00
3434;BME280;1730;41.932;25.548;2024-03-08T03:12:02;101527.22;;;7.69;100.00
3434;BME280;1730;41.932;25.548;2024-03-08T03:14:28;101532.75;;;7.66;100.00
3434;BME280;1730;41.932;25.548;2024-03-08T03:16:53;101531.25;;;7.60;100.00
3434;BME280;1730;41.932;25.548;2024-03-08T03:19:20;101557.22;;;7.77;100.00
3434;BME280;1730;41.932;25.548;2024-03-08T03:21:45;101567.88;;;7.79;100.00
3434;BME280;1730;41.932;25.548;2024-03-08T03:24:11;101553.44;;;7.64;100.00
3434;BME280;1730;41.932;25.548;2024-03-08T03:26:38;101579.31;;;7.82;100.00
3434;BME280;1730;41.932;25.548;2024-03-08T03:29:07;101530.62;;;7.55;100.00
3434;BME280;1730;41.932;25.548;2024-03-08T03:31:34;101562.31;;;7.66;100.00
3434;BME280;1730;41.932;25.548;2024-03-08T03:34:01;101500.97;;;7.24;100.00
3434;BME280;1730;41.932;25.548;2024-03-08T03:36:31;101573.97;;;7.65;100.00
3434;BME280;1730;41.932;25.548;2024-03-08T03:38:57;101573.50;;;7.57;100.00
3434;BME280;1730;41.932;25.548;2024-03-08T03:41:41;101567.50;;;7.35;100.00
3434;BME280;1730;41.932;25.548;2024-03-08T03:44:07;101593.88;;;7.44;100.00
3434;BME280;1730;41.932;25.548;2024-03-08T03:46:33;101597.38;;;7.46;100.00
3434;BME280;1730;41.932;25.548;2024-03-08T03:48:59;101618.91;;;7.44;100.00
3434;BME280;1730;41.932;25.548;2024-03-08T03:51:24;101624.28;;;7.44;100.00
3434;BME280;1730;41.932;25.548;2024-03-08T03:53:50;101650.91;;;7.66;100.00
3434;BME280;1730;41.932;25.548;2024-03-08T03:56:16;101650.31;;;7.59;100.00
3434;BME280;1730;41.932;25.548;2024-03-08T03:58:41;101671.50;;;7.65;100.00
3434;BME280;1730;41.932;25.548;2024-03-08T04:01:07;101565.34;;;7.07;100.00
3434;BME280;1730;41.932;25.548;2024-03-08T04:03:35;101675.47;;;7.76;100.00
3434;BME280;1730;41.932;25.548;2024-03-08T04:06:04;101646.69;;;7.60;100.00
3434;BME280;1730;41.932;25.548;2024-03-08T04:08:30;101658.62;;;7.55;100.00
3434;BME280;1730;41.932;25.548;2024-03-08T04:10:56;101631.75;;;7.38;100.00
3434;BME280;1730;41.932;25.548;2024-03-08T04:13:21;101633.97;;;7.30;100.00
3434;BME280;1730;41.932;25.548;2024-03-08T04:15:47;101610.72;;;7.11;100.00
3434;BME280;1730;41.932;25.548;2024-03-08T04:18:16;101645.62;;;7.29;100.00
3434;BME280;1730;41.932;25.548;2024-03-08T04:20:43;101665.94;;;7.34;100.00
3434;BME280;1730;41.932;25.548;2024-03-08T04:23:08;101681.03;;;7.37;100.00
3434;BME280;1730;41.932;25.548;2024-03-08T04:25:34;101699.44;;;7.44;100.00
3434;BME280;1730;41.932;25.548;2024-03-08T04:27:59;101484.37;;;6.10;100.00
3434;BME280;1730;41.932;25.548;2024-03-08T04:30:25;101673.66;;;7.23;100.00
3434;BME280;1730;41.932;25.548;2024-03-08T04:32:53;101703.28;;;7.39;100.00
3434;BME280;1730;41.932;25.548;2024-03-08T04:35:19;101690.25;;;7.31;100.00
3434;BME280;1730;41.932;25.548;2024-03-08T04:37:45;101545.03;;;6.48;100.00
3434;BME280;1730;41.932;25.548;2024-03-08T04:40:11;101604.06;;;6.65;100.00
3434;BME280;1730;41.932;25.548;2024-03-08T04:42:37;101475.53;;;5.89;100.00
3434;BME280;1730;41.932;25.548;2024-03-08T04:45:04;101664.53;;;6.90;100.00
3434;BME280;1730;41.932;25.548;2024-03-08T04:47:30;101613.59;;;6.33;100.00
3434;BME280;1730;41.932;25.548;2024-03-08T04:49:56;101692.09;;;6.93;100.00
3434;BME280;1730;41.932;25.548;2024-03-08T04:52:22;101702.59;;;6.98;100.00
3434;BME280;1730;41.932;25.548;2024-03-08T04:54:47;101720.81;;;7.10;100.00
3434;BME280;1730;41.932;25.548;2024-03-08T04:57:13;101719.28;;;7.04;100.00
3434;BME280;1730;41.932;25.548;2024-03-08T04:59:39;101717.41;;;7.06;100.00
3434;BME280;1730;41.932;25.548;2024-03-08T05:02:05;101593.41;;;6.26;100.00
3434;BME280;1730;41.932;25.548;2024-03-08T05:04:32;101712.44;;;7.16;100.00
3434;BME280;1730;41.932;25.548;2024-03-08T05:07:00;101685.13;;;6.89;100.00
3434;BME280;1730;41.932;25.548;2024-03-08T05:09:27;101727.44;;;7.39;100.00
3434;BME280;1730;41.932;25.548;2024-03-08T05:12:01;101712.44;;;7.35;100.00
3434;BME280;1730;41.932;25.548;2024-03-08T05:14:30;101705.56;;;7.46;100.00
3434;BME280;1730;41.932;25.548;2024-03-08T05:16:58;101652.53;;;7.15;100.00
3434;BME280;1730;41.932;25.548;2024-03-08T05:19:26;101633.28;;;7.07;100.00
3434;BME280;1730;41.932;25.548;2024-03-08T05:21:51;101465.69;;;6.27;100.00
3434;BME280;1730;41.932;25.548;2024-03-08T05:24:17;101219.84;;;4.90;100.00
3434;BME280;1730;41.932;25.548;2024-03-08T05:26:43;101471.37;;;6.38;100.00
3434;BME280;1730;41.932;25.548;2024-03-08T05:29:09;101555.69;;;6.86;100.00
3434;BME280;1730;41.932;25.548;2024-03-08T05:31:48;101397.16;;;6.23;100.00
3434;BME280;1730;41.932;25.548;2024-03-08T05:34:15;101584.72;;;7.48;100.00
3434;BME280;1730;41.932;25.548;2024-03-08T05:36:41;101578.94;;;7.55;100.00
3434;BME280;1730;41.932;25.548;2024-03-08T05:39:10;101518.97;;;7.22;100.00
3434;BME280;1730;41.932;25.548;2024-03-08T05:41:38;101486.22;;;7.15;100.00
3434;BME280;1730;41.932;25.548;2024-03-08T05:44:04;101476.91;;;7.40;100.00
3434;BME280;1730;41.932;25.548;2024-03-08T05:46:30;101459.31;;;7.34;100.00
3434;BME280;1730;41.932;25.548;2024-03-08T05:48:55;101442.47;;;7.48;100.00
3434;BME280;1730;41.932;25.548;2024-03-08T05:51:23;101434.50;;;7.46;100.00
3434;BME280;1730;41.932;25.548;2024-03-08T05:53:49;101381.84;;;7.28;100.00
3434;BME280;1730;41.932;25.548;2024-03-08T05:56:20;101349.03;;;7.23;100.00
3434;BME280;1730;41.932;25.548;2024-03-08T05:58:45;101363.34;;;7.55;100.00
3434;BME280;1730;41.932;25.548;2024-03-08T06:01:11;101125.03;;;6.19;100.00
3434;BME280;1730;41.932;25.548;2024-03-08T06:03:38;101310.47;;;7.24;100.00
3434;BME280;1730;41.932;25.548;2024-03-08T06:06:13;101292.34;;;7.45;100.00
3434;BME280;1730;41.932;25.548;2024-03-08T06:08:39;101109.28;;;6.46;100.00
3434;BME280;1730;41.932;25.548;2024-03-08T06:11:04;101217.19;;;6.98;100.00
3434;BME280;1730;41.932;25.548;2024-03-08T06:13:34;101237.09;;;7.25;100.00
3434;BME280;1730;41.932;25.548;2024-03-08T06:16:01;101211.41;;;7.21;100.00
3434;BME280;1730;41.932;25.548;2024-03-08T06:18:33;101181.63;;;6.94;100.00
3434;BME280;1730;41.932;25.548;2024-03-08T06:21:02;101103.59;;;6.52;100.00
3434;BME280;1730;41.932;25.548;2024-03-08T06:23:27;101195.41;;;7.04;100.00
3434;BME280;1730;41.932;25.548;2024-03-08T06:25:53;101248.19;;;7.50;100.00
3434;BME280;1730;41.932;25.548;2024-03-08T06:28:18;101255.72;;;7.59;100.00
3434;BME280;1730;41.932;25.548;2024-03-08T06:30:44;101254.31;;;7.68;100.00
3434;BME280;1730;41.932;25.548;2024-03-08T06:33:09;101246.19;;;7.69;100.00
3434;BME280;1730;41.932;25.548;2024-03-08T06:35:36;101218.22;;;7.58;100.00
3434;BME280;1730;41.932;25.548;2024-03-08T06:38:04;101092.00;;;6.98;100.00
3434;BME280;1730;41.932;25.548;2024-03-08T06:40:29;101235.03;;;8.07;100.00
3434;BME280;1730;41.932;25.548;2024-03-08T06:42:55;101191.66;;;7.83;100.00
3434;BME280;1730;41.932;25.548;2024-03-08T06:45:20;101014.03;;;6.87;100.00
3434;BME280;1730;41.932;25.548;2024-03-08T06:47:47;101133.22;;;7.58;100.00
3434;BME280;1730;41.932;25.548;2024-03-08T06:50:13;101119.88;;;7.57;100.00
3434;BME280;1730;41.932;25.548;2024-03-08T06:52:41;101137.34;;;7.94;100.00
3434;BME280;1730;41.932;25.548;2024-03-08T06:55:10;101071.91;;;7.81;100.00
3434;BME280;1730;41.932;25.548;2024-03-08T06:57:39;101114.69;;;8.12;100.00
3434;BME280;1730;41.932;25.548;2024-03-08T07:00:09;101036.09;;;7.94;100.00
3434;BME280;1730;41.932;25.548;2024-03-08T07:02:46;101007.34;;;7.82;100.00
3434;BME280;1730;41.932;25.548;2024-03-08T07:05:14;100989.91;;;7.89;100.00
3434;BME280;1730;41.932;25.548;2024-03-08T07:07:40;100916.81;;;7.56;100.00
3434;BME280;1730;41.932;25.548;2024-03-08T07:10:12;100810.25;;;6.87;100.00
3434;BME280;1730;41.932;25.548;2024-03-08T07:12:40;100948.16;;;7.55;100.00
3434;BME280;1730;41.932;25.548;2024-03-08T07:15:05;100958.25;;;7.66;100.00
3434;BME280;1730;41.932;25.548;2024-03-08T07:17:31;100988.16;;;8.02;100.00
3434;BME280;1730;41.932;25.548;2024-03-08T07:19:59;100971.84;;;7.91;100.00
3434;BME280;1730;41.932;25.548;2024-03-08T07:22:32;100964.09;;;8.01;100.00
3434;BME280;1730;41.932;25.548;2024-03-08T07:24:57;100969.47;;;7.87;100.00
3434;BME280;1730;41.932;25.548;2024-03-08T07:27:35;100941.44;;;7.91;100.00
3434;BME280;1730;41.932;25.548;2024-03-08T07:30:02;100905.66;;;7.90;100.00
3434;BME280;1730;41.932;25.548;2024-03-08T07:32:28;100958.72;;;8.29;100.00
3434;BME280;1730;41.932;25.548;2024-03-08T07:34:55;100904.25;;;7.85;100.00
3434;BME280;1730;41.932;25.548;2024-03-08T07:37:21;100915.47;;;7.91;100.00
3434;BME280;1730;41.932;25.548;2024-03-08T07:39:47;100943.31;;;8.17;100.00
3434;BME280;1730;41.932;25.548;2024-03-08T07:42:13;100929.00;;;7.90;100.00
3434;BME280;1730;41.932;25.548;2024-03-08T07:44:39;100532.66;;;5.41;100.00
3434;BME280;1730;41.932;25.548;2024-03-08T07:47:05;100956.31;;;7.96;100.00
3434;BME280;1730;41.932;25.548;2024-03-08T07:49:32;100962.19;;;8.03;100.00
3434;BME280;1730;41.932;25.548;2024-03-08T07:51:59;101005.06;;;8.33;100.00
3434;BME280;1730;41.932;25.548;2024-03-08T07:54:25;100997.94;;;8.32;100.00
3434;BME280;1730;41.932;25.548;2024-03-08T07:56:51;100968.66;;;8.13;100.00
3434;BME280;1730;41.932;25.548;2024-03-08T07:59:18;100955.50;;;8.23;100.00
3434;BME280;1730;41.932;25.548;2024-03-08T08:01:43;100882.13;;;7.67;100.00
3434;BME280;1730;41.932;25.548;2024-03-08T08:04:10;100818.88;;;7.49;100.00
3434;BME280;1730;41.932;25.548;2024-03-08T08:06:38;100856.41;;;7.77;100.00
3434;BME280;1730;41.932;25.548;2024-03-08T08:09:07;100899.81;;;7.98;100.00
3434;BME280;1730;41.932;25.548;2024-03-08T08:11:47;100926.69;;;8.39;100.00
3434;BME280;1730;41.932;25.548;2024-03-08T08:14:13;100923.84;;;8.42;100.00
3434;BME280;1730;41.932;25.548;2024-03-08T08:16:39;100865.28;;;8.06;100.00
3434;BME280;1730;41.932;25.548;2024-03-08T08:19:08;100762.53;;;7.35;100.00
3434;BME280;1730;41.932;25.548;2024-03-08T08:21:36;100892.69;;;8.11;100.00
3434;BME280;1730;41.932;25.548;2024-03-08T08:24:05;100905.84;;;8.15;100.00
3434;BME280;1730;41.932;25.548;2024-03-08T08:26:31;100893.09;;;8.05;100.00
3434;BME280;1730;41.932;25.548;2024-03-08T08:28:58;100911.87;;;8.05;100.00
3434;BME280;1730;41.932;25.548;2024-03-08T08:31:25;100787.91;;;7.57;100.00
3434;BME280;1730;41.932;25.548;2024-03-08T08:33:53;100941.22;;;8.63;100.00
3434;BME280;1730;41.932;25.548;2024-03-08T08:36:26;100926.69;;;8.66;100.00
3434;BME280;1730;41.932;25.548;2024-03-08T08:38:58;100798.84;;;8.08;100.00
3434;BME280;1730;41.932;25.548;2024-03-08T08:41:24;100895.63;;;8.74;100.00
3434;BME280;1730;41.932;25.548;2024-03-08T08:43:50;100875.62;;;8.39;100.00
3434;BME280;1730;41.932;25.548;2024-03-08T08:46:19;100465.44;;;5.90;100.00
3434;BME280;1730;41.932;25.548;2024-03-08T08:48:44;100878.53;;;8.22;100.00
3434;BME280;1730;41.932;25.548;2024-03-08T08:51:13;100762.69;;;7.60;100.00
3434;BME280;1730;41.932;25.548;2024-03-08T08:53:41;100829.13;;;8.24;100.00
3434;BME280;1730;41.932;25.548;2024-03-08T08:56:10;100925.81;;;9.04;100.00
3434;BME280;1730;41.932;25.548;2024-03-08T08:58:47;100897.06;;;8.92;100.00
3434;BME280;1730;41.932;25.548;2024-03-08T09:01:13;100859.84;;;8.47;100.00
3434;BME280;1730;41.932;25.548;2024-03-08T09:03:38;100752.44;;;8.06;100.00
3434;BME280;1730;41.932;25.548;2024-03-08T09:06:08;100833.94;;;8.33;100.00
3434;BME280;1730;41.932;25.548;2024-03-08T09:08:36;100729.72;;;7.85;100.00
3434;BME280;1730;41.932;25.548;2024-03-08T09:11:02;100707.13;;;7.48;100.00
3434;BME280;1730;41.932;25.548;2024-03-08T09:13:27;100886.88;;;8.58;100.00
3434;BME280;1730;41.932;25.548;2024-03-08T09:15:53;100800.63;;;8.22;100.00
3434;BME280;1730;41.932;25.548;2024-03-08T09:18:21;100765.41;;;7.99;100.00
3434;BME280;1730;41.932;25.548;2024-03-08T09:20:49;100922.78;;;8.96;100.00
3434;BME280;1730;41.932;25.548;2024-03-08T09:23:15;100871.47;;;8.47;100.00
3434;BME280;1730;41.932;25.548;2024-03-08T09:25:42;100931.78;;;8.70;100.00
3434;BME280;1730;41.932;25.548;2024-03-08T09:28:09;100784.22;;;7.99;100.00
3434;BME280;1730;41.932;25.548;2024-03-08T09:30:37;100952.94;;;9.01;100.00
3434;BME280;1730;41.932;25.548;2024-03-08T09:33:06;100815.44;;;8.14;100.00
3434;BME280;1730;41.932;25.548;2024-03-08T09:35:33;100951.97;;;8.90;100.00
3434;BME280;1730;41.932;25.548;2024-03-08T09:37:58;100962.72;;;8.90;100.00
3434;BME280;1730;41.932;25.548;2024-03-08T09:40:24;100825.97;;;8.18;100.00
3434;BME280;1730;41.932;25.548;2024-03-08T09:42:51;100960.91;;;8.90;100.00
3434;BME280;1730;41.932;25.548;2024-03-08T09:45:20;100982.44;;;9.03;100.00
3434;BME280;1730;41.932;25.548;2024-03-08T09:47:47;100996.47;;;9.08;100.00
3434;BME280;1730;41.932;25.548;2024-03-08T09:50:19;101002.87;;;9.05;100.00
3434;BME280;1730;41.932;25.548;2024-03-08T09:52:47;101017.09;;;9.47;100.00
3434;BME280;1730;41.932;25.548;2024-03-08T09:55:13;100652.31;;;7.64;100.00
3434;BME280;1730;41.932;25.548;2024-03-08T09:57:40;100983.69;;;9.75;100.00
3434;BME280;1730;41.932;25.548;2024-03-08T10:00:08;100996.00;;;9.91;100.00
3434;BME280;1730;41.932;25.548;2024-03-08T10:02:45;100949.06;;;10.07;100.00
3434;BME280;1730;41.932;25.548;2024-03-08T10:05:12;100800.22;;;9.43;100.00
3434;BME280;1730;41.932;25.548;2024-03-08T10:07:38;100851.69;;;10.24;100.00
3434;BME280;1730;41.932;25.548;2024-03-08T10:10:04;100781.34;;;9.79;100.00
3434;BME280;1730;41.932;25.548;2024-03-08T10:12:29;100747.88;;;9.71;100.00
3434;BME280;1730;41.932;25.548;2024-03-08T10:14:58;100711.94;;;9.59;100.00
3434;BME280;1730;41.932;25.548;2024-03-08T10:17:24;100738.84;;;9.95;100.00
3434;BME280;1730;41.932;25.548;2024-03-08T10:19:51;100739.97;;;9.80;100.00
3434;BME280;1730;41.932;25.548;2024-03-08T10:22:19;100672.94;;;9.41;100.00
3434;BME280;1730;41.932;25.548;2024-03-08T10:24:47;100732.00;;;10.03;100.00
3434;BME280;1730;41.932;25.548;2024-03-08T10:27:16;100686.38;;;9.88;100.00
3434;BME280;1730;41.932;25.548;2024-03-08T10:29:42;100690.00;;;10.35;100.00
3434;BME280;1730;41.932;25.548;2024-03-08T10:32:09;100625.00;;;10.16;100.00
3434;BME280;1730;41.932;25.548;2024-03-08T10:34:35;100607.66;;;10.42;100.00
3434;BME280;1730;41.932;25.548;2024-03-08T10:37:04;100568.66;;;10.46;100.00
3434;BME280;1730;41.932;25.548;2024-03-08T10:39:37;100536.56;;;10.43;100.00
3434;BME280;1730;41.932;25.548;2024-03-08T10:42:04;100440.59;;;9.96;100.00
3434;BME280;1730;41.932;25.548;2024-03-08T10:44:43;100394.09;;;9.94;100.00
3434;BME280;1730;41.932;25.548;2024-03-08T10:47:19;100457.78;;;10.28;100.00
3434;BME280;1730;41.932;25.548;2024-03-08T10:50:17;100454.44;;;10.47;100.00
3434;BME280;1730;41.932;25.548;2024-03-08T10:52:50;100435.34;;;10.06;100.00
3434;BME280;1730;41.932;25.548;2024-03-08T10:55:18;100410.97;;;10.29;100.00
3434;BME280;1730;41.932;25.548;2024-03-08T10:57:46;100385.22;;;10.36;100.00
3434;BME280;1730;41.932;25.548;2024-03-08T11:00:13;100374.84;;;10.64;100.00
3434;BME280;1730;41.932;25.548;2024-03-08T11:02:43;100343.53;;;10.93;100.00
3434;BME280;1730;41.932;25.548;2024-03-08T11:05:31;100208.88;;;10.60;100.00
3434;BME280;1730;41.932;25.548;2024-03-08T11:08:01;100175.00;;;11.56;100.00
3434;BME280;1730;41.932;25.548;2024-03-08T11:10:30;100098.94;;;11.42;100.00
3434;BME280;1730;41.932;25.548;2024-03-08T11:12:55;100063.25;;;11.19;100.00
3434;BME280;1730;41.932;25.548;2024-03-08T11:15:21;100056.44;;;11.34;100.00
3434;BME280;1730;41.932;25.548;2024-03-08T11:17:48;100022.91;;;11.17;100.00
3434;BME280;1730;41.932;25.548;2024-03-08T11:20:18;100002.03;;;11.10;100.00
3434;BME280;1730;41.932;25.548;2024-03-08T11:23:06;99998.84;;;10.26;100.00
3434;BME280;1730;41.932;25.548;2024-03-08T11:25:40;100103.28;;;10.34;100.00
3434;BME280;1730;41.932;25.548;2024-03-08T11:28:19;100087.47;;;10.50;100.00
3434;BME280;1730;41.932;25.548;2024-03-08T11:33:28;100068.56;;;10.80;100.00
3434;BME280;1730;41.932;25.548;2024-03-08T11:36:10;100023.22;;;10.25;100.00
3434;BME280;1730;41.932;25.548;2024-03-08T11:38:41;100007.50;;;10.30;100.00
3434;BME280;1730;41.932;25.548;2024-03-08T11:41:07;99998.72;;;10.37;100.00
3434;BME280;1730;41.932;25.548;2024-03-08T11:43:42;99850.69;;;9.15;100.00
3434;BME280;1730;41.932;25.548;2024-03-08T11:46:08;99889.31;;;9.55;100.00
3434;BME280;1730;41.932;25.548;2024-03-08T11:48:37;100012.84;;;10.20;100.00
3434;BME280;1730;41.932;25.548;2024-03-08T11:51:03;99987.31;;;10.24;100.00
3434;BME280;1730;41.932;25.548;2024-03-08T11:53:31;100012.22;;;10.37;100.00
3434;BME280;1730;41.932;25.548;2024-03-08T11:56:15;99859.19;;;9.71;100.00
3434;BME280;1730;41.932;25.548;2024-03-08T11:58:54;99961.59;;;10.51;100.00
3434;BME280;1730;41.932;25.548;2024-03-08T12:01:27;99925.91;;;10.28;100.00
3434;BME280;1730;41.932;25.548;2024-03-08T12:03:57;99758.03;;;9.78;100.00
3434;BME280;1730;41.932;25.548;2024-03-08T12:06:27;99906.41;;;10.64;100.00
3434;BME280;1730;41.932;25.548;2024-03-08T12:09:11;99596.34;;;9.01;100.00
3434;BME280;1730;41.932;25.548;2024-03-08T12:11:38;99870.94;;;10.78;100.00
3434;BME280;1730;41.932;25.548;2024-03-08T12:14:04;99899.59;;;11.27;100.00
3434;BME280;1730;41.932;25.548;2024-03-08T12:16:33;99905.66;;;11.39;100.00
3434;BME280;1730;41.932;25.548;2024-03-08T12:19:06;99608.62;;;9.53;100.00
3434;BME280;1730;41.932;25.548;2024-03-08T12:21:32;99866.09;;;11.01;100.00
3434;BME280;1730;41.932;25.548;2024-03-08T12:24:07;99806.75;;;10.72;100.00
3434;BME280;1730;41.932;25.548;2024-03-08T12:26:37;99534.66;;;9.19;100.00
3434;BME280;1730;41.932;25.548;2024-03-08T12:29:27;99631.16;;;9.62;100.00
3434;BME280;1730;41.932;25.548;2024-03-08T12:31:55;99753.16;;;10.31;100.00
3434;BME280;1730;41.932;25.548;2024-03-08T12:34:23;99887.41;;;10.66;100.00
3434;BME280;1730;41.932;25.548;2024-03-08T12:36:50;99536.75;;;8.16;100.00
3434;BME280;1730;41.932;25.548;2024-03-08T12:39:24;99679.38;;;9.15;100.00
3434;BME280;1730;41.932;25.548;2024-03-08T12:41:56;99937.78;;;10.65;100.00
3434;BME280;1730;41.932;25.548;2024-03-08T12:47:24;99903.69;;;10.55;100.00
3434;BME280;1730;41.932;25.548;2024-03-08T12:49:50;99921.12;;;10.41;100.00
3434;BME280;1730;41.932;25.548;2024-03-08T12:52:22;99907.50;;;10.33;100.00
3434;BME280;1730;41.932;25.548;2024-03-08T12:54:51;99569.00;;;8.26;100.00
3434;BME280;1730;41.932;25.548;2024-03-08T12:57:17;99919.81;;;10.26;100.00
3434;BME280;1730;41.932;25.548;2024-03-08T12:59:43;99935.19;;;10.54;100.00
3434;BME280;1730;41.932;25.548;2024-03-08T13:02:13;99764.59;;;9.45;100.00
3434;BME280;1730;41.932;25.548;2024-03-08T13:04:41;99951.53;;;10.62;100.00
3434;BME280;1730;41.932;25.548;2024-03-08T13:07:06;99952.69;;;10.60;100.00
3434;BME280;1730;41.932;25.548;2024-03-08T13:09:32;99790.75;;;9.83;100.00
3434;BME280;1730;41.932;25.548;2024-03-08T13:12:03;99771.94;;;10.02;100.00